KCSM/CSM METAR and TAF weather

Enter ICAO airport designator
Station Type Date Time Source
KCSM METAR 2020/07/07 10:14 UTC NOAA

KCSM 071014Z AUTO 36005KT 3SM BR CLR 19/19 A3000 RMK AO2 T01940194 $


Station Type Date Time Source
KCSM Decoded METAR 2020/07/07 10:14 UTC NOAA

CLINTON-SHERMAN AIRPORT, OK, United States (KCSM) 35-21E 99-12W 588M
Jul 07, 2020 - 06:14 AM EDT / 2020.07.07 1014 UTC
Wind: from the N (360 degrees) at 6 MPH (5 KT):0
Visibility: 3 mile(s):0
Sky conditions: clear
Weather: mist
Temperature: 66.9 F (19.4 C)
Dew Point: 66.9 F (19.4 C)
Relative Humidity: 100%
Pressure (altimeter): 30 in. Hg (1015 hPa)
ob: KCSM 071014Z AUTO 36005KT 3SM BR CLR 19/19 A3000 RMK AO2 T01940194
cycle: 10

Station Type Date Time Source
KCSM TAF 2020/07/07 10:09 UTC NOAA

TAF
AMD KCSM 071007Z 0710/0806 35004KT 1SM BR SCT003
TEMPO 0710/0713 1/4SM FG
FM071500 15012KT P6SM SCT050

Example: see airport list